Time;durP1;ratioP1;P1;durP2;ratioP2;P2;SDS_P1;SDS_P2;PMS_P1;PMS_P2;Temp;Humidity;BMP_temperature;BMP_pressure;BME280_temperature;BME280_humidity;BME280_pressure;Samples;Min_cycle;Max_cycle;Signal;HPM_P1;HPM_P2
2022/11/21 00:01:21;;;;;;;5.38;3.10;;;;;;;;;;5049805;28;20033;-41
2022/11/21 00:03:47;;;;;;;6.30;3.20;;;;;;;;;;5049708;28;20061;-41
2022/11/21 00:06:13;;;;;;;5.82;3.25;;;;;;;;;;5049739;28;20033;-40
2022/11/21 00:08:39;;;;;;;5.18;3.03;;;;;;;;;;5055928;28;20032;-41
2022/11/21 00:11:05;;;;;;;6.53;3.72;;;;;;;;;;5069659;28;20055;-41
2022/11/21 00:13:31;;;;;;;6.03;3.47;;;;;;;;;;5069559;28;20648;-41
2022/11/21 00:16:02;;;;;;;7.05;3.83;;;;;;;;;;5069501;28;20107;-41
2022/11/21 00:18:28;;;;;;;5.53;3.15;;;;;;;;;;5055298;28;20108;-41
2022/11/21 00:20:54;;;;;;;5.05;2.67;;;;;;;;;;5049584;28;20129;-41
2022/11/21 00:23:20;;;;;;;6.13;2.75;;;;;;;;;;5049561;28;20021;-41
2022/11/21 00:25:46;;;;;;;4.55;2.47;;;;;;;;;;5049435;28;20029;-41
2022/11/21 00:28:12;;;;;;;3.50;2.55;;;;;;;;;;5049804;28;20016;-41
2022/11/21 00:30:38;;;;;;;4.53;2.50;;;;;;;;;;5048581;28;20037;-41
2022/11/21 00:33:04;;;;;;;3.60;2.50;;;;;;;;;;5061533;28;20486;-41
2022/11/21 00:35:30;;;;;;;5.63;2.97;;;;;;;;;;5069469;28;20029;-41
2022/11/21 00:37:56;;;;;;;7.45;3.70;;;;;;;;;;5069451;28;20020;-41
2022/11/21 00:40:22;;;;;;;7.22;3.58;;;;;;;;;;5069345;28;20034;-41
2022/11/21 00:42:48;;;;;;;6.75;3.22;;;;;;;;;;5069295;28;20082;-41
2022/11/21 00:45:14;;;;;;;5.93;3.38;;;;;;;;;;5069210;28;20086;-41
2022/11/21 00:47:41;;;;;;;6.57;3.25;;;;;;;;;;5057947;28;20037;-41
2022/11/21 00:50:07;;;;;;;4.35;2.70;;;;;;;;;;5049578;28;20106;-41
2022/11/21 00:52:33;;;;;;;4.22;2.80;;;;;;;;;;5053203;28;20021;-41
2022/11/21 00:54:59;;;;;;;4.45;2.60;;;;;;;;;;5053213;28;20105;-41
2022/11/21 00:57:25;;;;;;;4.10;2.28;;;;;;;;;;5062347;28;20426;-41
2022/11/21 00:59:51;;;;;;;4.18;2.45;;;;;;;;;;5073180;28;20034;-41
2022/11/21 01:02:17;;;;;;;3.85;2.30;;;;;;;;;;5073169;28;20032;-41
2022/11/21 06:09:53;;;;;;;4.85;2.55;;;;;;;;;;5112445;28;20089;-39
2022/11/21 06:12:19;;;;;;;3.28;2.40;;;;;;;;;;5102907;28;20020;-39
2022/11/21 06:14:45;;;;;;;3.22;2.00;;;;;;;;;;5092709;28;20050;-39
2022/11/21 06:17:11;;;;;;;3.25;2.25;;;;;;;;;;5092776;28;20028;-39
2022/11/21 06:19:37;;;;;;;2.53;1.80;;;;;;;;;;5097515;28;20115;-39
2022/11/21 06:22:03;;;;;;;2.83;2.00;;;;;;;;;;5114044;28;20102;-39
2022/11/21 06:24:29;;;;;;;2.60;1.75;;;;;;;;;;5102995;28;20504;-39
2022/11/21 06:26:55;;;;;;;2.75;1.52;;;;;;;;;;5121869;27;20038;-39
2022/11/21 06:29:21;;;;;;;2.65;2.05;;;;;;;;;;5133793;27;20031;-39
2022/11/21 06:31:47;;;;;;;3.15;2.08;;;;;;;;;;5117838;27;20433;-40
2022/11/21 06:34:13;;;;;;;3.00;1.98;;;;;;;;;;5111378;28;20024;-39
2022/11/21 06:36:39;;;;;;;5.10;2.20;;;;;;;;;;5113372;28;20094;-39
2022/11/21 06:39:05;;;;;;;2.50;1.95;;;;;;;;;;5113422;28;20058;-39
2022/11/21 06:41:31;;;;;;;4.15;2.50;;;;;;;;;;5113644;28;20031;-39
2022/11/21 06:44:00;;;;;;;7.90;4.18;;;;;;;;;;5111505;28;20027;-40
2022/11/21 06:46:26;;;;;;;7.75;3.95;;;;;;;;;;5113395;28;20023;-39
2022/11/21 06:48:53;;;;;;;7.03;4.45;;;;;;;;;;5113094;28;20513;-39
2022/11/21 06:51:20;;;;;;;6.72;3.83;;;;;;;;;;5113296;28;20023;-39
2022/11/21 06:53:47;;;;;;;5.93;3.30;;;;;;;;;;5112106;28;20031;-40
2022/11/21 06:56:14;;;;;;;6.45;3.45;;;;;;;;;;5113200;28;20016;-39
2022/11/21 06:58:40;;;;;;;6.47;3.17;;;;;;;;;;5108226;28;20035;-39
2022/11/21 07:01:07;;;;;;;6.00;3.47;;;;;;;;;;5099710;28;20020;-39
2022/11/21 07:03:34;;;;;;;5.75;3.55;;;;;;;;;;5111738;28;20027;-39
2022/11/21 07:06:00;;;;;;;8.00;3.65;;;;;;;;;;5109726;28;20030;-39
2022/11/21 07:08:27;;;;;;;8.90;4.15;;;;;;;;;;5106041;28;20027;-39
2022/11/21 07:10:53;;;;;;;8.07;4.13;;;;;;;;;;5101397;28;20030;-39
2022/11/21 07:13:22;;;;;;;9.63;4.72;;;;;;;;;;5102440;28;20434;-39
2022/11/21 07:15:49;;;;;;;7.13;4.03;;;;;;;;;;5097622;28;20070;-39
2022/11/21 07:18:15;;;;;;;5.85;3.55;;;;;;;;;;5096503;28;20055;-41
2022/11/21 07:20:41;;;;;;;7.15;3.97;;;;;;;;;;5093616;28;20387;-40
2022/11/21 07:23:08;;;;;;;5.95;3.65;;;;;;;;;;5107063;28;20028;-42
2022/11/21 07:25:34;;;;;;;6.50;4.03;;;;;;;;;;5112830;28;20027;-42
2022/11/21 07:28:01;;;;;;;6.63;4.03;;;;;;;;;;5101877;28;20077;-42
2022/11/21 07:30:28;;;;;;;5.93;3.72;;;;;;;;;;5086644;28;20460;-42
2022/11/21 07:32:57;;;;;;;4.50;3.50;;;;;;;;;;5100689;28;20019;-42
2022/11/21 07:35:23;;;;;;;5.45;3.20;;;;;;;;;;5111723;28;20400;-42
2022/11/21 07:37:49;;;;;;;6.20;3.72;;;;;;;;;;5100304;28;20032;-42
2022/11/21 07:40:16;;;;;;;6.18;3.35;;;;;;;;;;5107714;28;20024;-42
2022/11/21 07:42:42;;;;;;;4.45;3.20;;;;;;;;;;5111583;28;20031;-42
2022/11/21 07:45:08;;;;;;;6.65;3.40;;;;;;;;;;5101022;28;20495;-42
2022/11/21 07:47:34;;;;;;;5.25;3.13;;;;;;;;;;5109901;28;20028;-42
2022/11/21 07:50:00;;;;;;;5.00;3.08;;;;;;;;;;5101296;28;20020;-42
2022/11/21 07:52:29;;;;;;;4.90;2.83;;;;;;;;;;5103400;27;20031;-42
2022/11/21 07:54:55;;;;;;;3.80;2.70;;;;;;;;;;5121329;27;20023;-42
2022/11/21 07:57:21;;;;;;;3.83;2.70;;;;;;;;;;5098428;28;20020;-42
2022/11/21 07:59:47;;;;;;;4.43;2.83;;;;;;;;;;5090730;28;20023;-42
2022/11/21 08:02:18;;;;;;;3.75;2.67;;;;;;;;;;5090829;28;20020;-42
2022/11/21 08:04:44;;;;;;;4.13;2.60;;;;;;;;;;5095522;28;20028;-42
2022/11/21 08:07:10;;;;;;;3.95;2.65;;;;;;;;;;5085702;28;20032;-42
2022/11/21 08:09:36;;;;;;;3.38;2.42;;;;;;;;;;5107726;28;20031;-42
2022/11/21 08:12:02;;;;;;;4.07;2.60;;;;;;;;;;5099259;28;20043;-41
2022/11/21 08:14:28;;;;;;;2.58;2.08;;;;;;;;;;5106126;28;20035;-42
2022/11/21 08:16:54;;;;;;;3.60;2.42;;;;;;;;;;5097691;28;20028;-42
2022/11/21 08:19:20;;;;;;;4.63;2.45;;;;;;;;;;5091219;28;20059;-42
2022/11/21 08:21:46;;;;;;;3.85;2.33;;;;;;;;;;5100643;28;20138;-42
2022/11/21 08:24:13;;;;;;;4.43;2.33;;;;;;;;;;5108309;28;20035;-43
2022/11/21 08:26:39;;;;;;;2.85;2.20;;;;;;;;;;5112052;28;20024;-42
2022/11/21 08:29:06;;;;;;;2.45;2.05;;;;;;;;;;5111896;28;20100;-42
2022/11/21 08:31:32;;;;;;;2.72;2.05;;;;;;;;;;5107673;28;20028;-42
2022/11/21 08:33:57;;;;;;;2.63;2.00;;;;;;;;;;5090919;28;20020;-42
2022/11/21 08:36:24;;;;;;;2.95;2.00;;;;;;;;;;5090810;28;20028;-42
2022/11/21 08:38:50;;;;;;;4.93;2.20;;;;;;;;;;5102720;28;20438;-42
2022/11/21 08:44:00;;;;;;;;;;;;;;;;;;5091797;28;20043;-42
2022/11/21 08:46:27;;;;;;;3.80;2.50;;;;;;;;;;5090994;28;19904;-42
2022/11/21 08:48:55;;;;;;;3.63;2.22;;;;;;;;;;5090459;28;20023;-42
2022/11/21 08:51:22;;;;;;;3.70;2.00;;;;;;;;;;5094387;28;20421;-42
2022/11/21 08:53:48;;;;;;;3.97;1.98;;;;;;;;;;5099648;28;20024;-42
2022/11/21 08:56:14;;;;;;;4.00;2.40;;;;;;;;;;5110521;28;20020;-40
2022/11/21 08:58:40;;;;;;;3.05;2.22;;;;;;;;;;5110769;28;20036;-40
2022/11/21 09:01:06;;;;;;;3.10;2.33;;;;;;;;;;5110490;28;20024;-40
2022/11/21 09:03:32;;;;;;;3.22;2.25;;;;;;;;;;5110244;28;20135;-40
2022/11/21 09:05:58;;;;;;;4.25;2.28;;;;;;;;;;5110442;28;20019;-40
2022/11/21 09:08:25;;;;;;;3.72;2.20;;;;;;;;;;5110484;28;20081;-40
2022/11/21 09:10:51;;;;;;;2.58;1.90;;;;;;;;;;5110158;28;20151;-40
2022/11/21 09:13:17;;;;;;;3.80;1.98;;;;;;;;;;5114289;28;20020;-40
2022/11/21 09:18:28;;;;;;;3.95;2.38;;;;;;;;;;5114362;28;20080;-40
2022/11/21 09:20:54;;;;;;;3.00;2.22;;;;;;;;;;5114344;28;20465;-40
2022/11/21 09:23:20;;;;;;;4.03;2.20;;;;;;;;;;5114169;28;20031;-40
2022/11/21 09:25:46;;;;;;;3.50;2.05;;;;;;;;;;5095796;28;20032;-40
2022/11/21 09:28:12;;;;;;;2.92;2.10;;;;;;;;;;5114344;28;20027;-40
2022/11/21 09:30:39;;;;;;;3.72;2.13;;;;;;;;;;5113827;28;20532;-42
2022/11/21 09:33:12;;;;;;;2.92;1.90;;;;;;;;;;5114120;28;20451;-42
2022/11/21 09:35:38;;;;;;;4.10;1.97;;;;;;;;;;5113927;28;20059;-42
2022/11/21 09:38:05;;;;;;;3.22;2.20;;;;;;;;;;5113793;28;20254;-42
2022/11/21 09:40:31;;;;;;;3.30;2.10;;;;;;;;;;5113920;28;20043;-42
2022/11/21 09:43:30;;;;;;;3.65;2.20;;;;;;;;;;5113895;28;20051;-42
2022/11/21 09:46:09;;;;;;;3.50;2.08;;;;;;;;;;5057207;28;20050;-42
2022/11/21 09:48:58;;;;;;;3.60;1.92;;;;;;;;;;5113731;28;20038;-42
2022/11/21 09:51:26;;;;;;;2.10;1.60;;;;;;;;;;5100629;28;20406;-40
2022/11/21 09:54:03;;;;;;;3.90;1.80;;;;;;;;;;5113824;28;20393;-40
2022/11/21 09:56:31;;;;;;;2.95;1.52;;;;;;;;;;5113514;28;20024;-40
2022/11/21 09:58:57;;;;;;;2.80;1.17;;;;;;;;;;5113574;28;20027;-41
2022/11/21 10:01:22;;;;;;;2.20;1.55;;;;;;;;;;5113536;28;20027;-40
2022/11/21 10:03:51;;;;;;;1.77;1.00;;;;;;;;;;5113472;28;20444;-41
2022/11/21 10:06:19;;;;;;;2.35;1.20;;;;;;;;;;5105523;28;20127;-40
2022/11/21 10:08:54;;;;;;;2.05;1.10;;;;;;;;;;5098057;28;20023;-40
2022/11/21 10:11:23;;;;;;;5.53;1.15;;;;;;;;;;5093232;28;20494;-42
2022/11/21 10:14:05;;;;;;;1.52;0.90;;;;;;;;;;5114106;28;20415;-40
2022/11/21 10:16:36;;;;;;;1.63;1.02;;;;;;;;;;5112751;28;20042;-40
2022/11/21 10:19:14;;;;;;;2.17;0.93;;;;;;;;;;5111647;28;20072;-40
2022/11/21 10:21:50;;;;;;;1.52;0.77;;;;;;;;;;5102232;28;20126;-40
2022/11/21 10:24:16;;;;;;;1.55;1.05;;;;;;;;;;5097568;28;20028;-40
2022/11/21 10:26:42;;;;;;;1.17;0.80;;;;;;;;;;5093470;28;20111;-40
2022/11/21 10:29:17;;;;;;;2.38;0.80;;;;;;;;;;5099196;28;20032;-40
2022/11/21 10:31:43;;;;;;;1.33;0.85;;;;;;;;;;5096989;28;20028;-41
2022/11/21 10:34:11;;;;;;;1.92;1.05;;;;;;;;;;5099923;28;20019;-40
2022/11/21 10:36:38;;;;;;;2.72;1.10;;;;;;;;;;5112993;28;20024;-41
2022/11/21 10:39:22;;;;;;;1.75;1.10;;;;;;;;;;5092901;28;20020;-41
2022/11/21 10:41:50;;;;;;;2.35;1.38;;;;;;;;;;5103181;28;20105;-40
2022/11/21 10:47:13;;;;;;;2.60;1.10;;;;;;;;;;5094391;28;20558;-40
2022/11/21 10:49:40;;;;;;;2.35;1.20;;;;;;;;;;5092000;28;20588;-40
2022/11/21 10:52:09;;;;;;;4.25;1.45;;;;;;;;;;5091423;28;20035;-41
2022/11/21 10:54:55;;;;;;;2.17;0.85;;;;;;;;;;5089844;28;20111;-41
2022/11/21 10:57:21;;;;;;;3.30;1.20;;;;;;;;;;5089225;28;20135;-41
2022/11/21 11:00:01;;;;;;;3.72;1.30;;;;;;;;;;5098708;28;20024;-40
2022/11/21 11:02:27;;;;;;;4.10;1.15;;;;;;;;;;5082544;28;20562;-41
2022/11/21 11:05:12;;;;;;;2.85;1.13;;;;;;;;;;5094404;28;20143;-40
2022/11/21 11:07:38;;;;;;;3.05;1.10;;;;;;;;;;5096414;28;20036;-41
2022/11/21 11:10:14;;;;;;;3.88;1.25;;;;;;;;;;5089957;28;20027;-40
2022/11/21 11:15:27;;;;;;;2.83;1.10;;;;;;;;;;5050225;28;20036;-41
2022/11/21 11:17:57;;;;;;;2.63;1.05;;;;;;;;;;5088047;28;20028;-40
2022/11/21 11:20:35;;;;;;;1.77;0.75;;;;;;;;;;5092461;28;20031;-40
2022/11/21 11:23:15;;;;;;;1.45;0.80;;;;;;;;;;5089522;28;20032;-41
2022/11/21 11:25:45;;;;;;;1.48;0.90;;;;;;;;;;5090619;28;20096;-41
2022/11/21 11:28:12;;;;;;;2.15;1.10;;;;;;;;;;5089455;28;20142;-40
2022/11/21 11:30:38;;;;;;;2.47;0.82;;;;;;;;;;5098420;28;20032;-40
2022/11/21 11:33:04;;;;;;;1.02;0.70;;;;;;;;;;5093206;28;20034;-41
2022/11/21 11:35:32;;;;;;;2.40;0.82;;;;;;;;;;5096743;28;20040;-41
2022/11/21 11:38:05;;;;;;;1.65;0.93;;;;;;;;;;5104141;28;20656;-43
2022/11/21 11:40:35;;;;;;;3.45;0.95;;;;;;;;;;5089280;28;20063;-40
2022/11/21 11:48:38;;;;;;;0.95;0.77;;;;;;;;;;5068420;28;20048;-40
2022/11/21 11:51:18;;;;;;;4.28;1.13;;;;;;;;;;5095595;28;20016;-41
2022/11/21 11:53:46;;;;;;;5.75;1.67;;;;;;;;;;5094293;28;20032;-41
2022/11/21 11:56:12;;;;;;;6.50;1.35;;;;;;;;;;5089795;28;20023;-40
2022/11/21 11:58:42;;;;;;;6.53;1.65;;;;;;;;;;5099246;28;20042;-41
2022/11/21 12:01:10;;;;;;;3.42;1.50;;;;;;;;;;5091520;28;20442;-40
2022/11/21 12:03:52;;;;;;;3.58;1.30;;;;;;;;;;5099600;28;20038;-40
2022/11/21 12:06:21;;;;;;;3.30;1.13;;;;;;;;;;5090410;28;20071;-40
2022/11/21 12:08:59;;;;;;;3.08;1.15;;;;;;;;;;5094876;28;20031;-41
2022/11/21 12:17:09;;;;;;;5.05;1.35;;;;;;;;;;5042705;28;20055;-41
2022/11/21 12:19:36;;;;;;;4.30;1.40;;;;;;;;;;5097128;28;20028;-40
2022/11/21 12:22:05;;;;;;;5.45;1.23;;;;;;;;;;5095715;28;20035;-41
2022/11/21 12:24:31;;;;;;;4.18;1.80;;;;;;;;;;5091006;28;20036;-40
2022/11/21 12:27:16;;;;;;;3.72;1.40;;;;;;;;;;5096531;28;20036;-41
2022/11/21 12:30:00;;;;;;;4.60;1.60;;;;;;;;;;5094589;28;20036;-42
2022/11/21 12:32:26;;;;;;;;;;;;;;;;;;5092526;28;20038;-41
2022/11/21 12:35:11;;;;;;;4.45;1.40;;;;;;;;;;5093374;28;19915;-40
2022/11/21 12:37:55;;;;;;;5.10;1.30;;;;;;;;;;5092536;28;20061;-40
2022/11/21 12:40:21;;;;;;;;;;;;;;;;;;5100177;28;20059;-40
2022/11/21 12:43:06;;;;;;;3.17;1.45;;;;;;;;;;5098786;28;19959;-41
2022/11/21 12:45:32;;;;;;;3.97;1.50;;;;;;;;;;5096307;28;20559;-41
2022/11/21 12:56:48;;;;;;;7.22;1.90;;;;;;;;;;5105180;28;20528;-42
2022/11/21 12:59:14;;;;;;;6.20;1.50;;;;;;;;;;5110572;28;20032;-41
2022/11/21 13:01:57;;;;;;;4.30;1.80;;;;;;;;;;5114863;28;20032;-40
2022/11/21 13:04:26;;;;;;;6.88;2.17;;;;;;;;;;5114862;28;20024;-42
2022/11/21 13:06:53;;;;;;;5.32;1.95;;;;;;;;;;5095601;28;20047;-41
2022/11/21 13:09:20;;;;;;;11.23;4.75;;;;;;;;;;5114720;28;20035;-41
2022/11/21 13:11:58;;;;;;;7.18;2.42;;;;;;;;;;5112936;28;20035;-41
2022/11/21 13:14:27;;;;;;;7.30;1.52;;;;;;;;;;5114982;28;20129;-41
2022/11/21 13:17:10;;;;;;;8.93;1.70;;;;;;;;;;5113579;28;20032;-41
2022/11/21 13:19:47;;;;;;;4.55;1.30;;;;;;;;;;5094331;28;20024;-40
2022/11/21 13:22:32;;;;;;;5.90;1.60;;;;;;;;;;5099338;28;20023;-42
2022/11/21 13:24:58;;;;;;;;;;;;;;;;;;5113456;28;20094;-40
2022/11/21 13:27:24;;;;;;;6.00;1.95;;;;;;;;;;5114651;28;19904;-41
2022/11/21 13:30:09;;;;;;;5.38;1.58;;;;;;;;;;5114303;28;20502;-41
2022/11/21 13:32:40;;;;;;;5.60;1.60;;;;;;;;;;5114278;28;20024;-41
2022/11/21 13:35:16;;;;;;;6.07;1.88;;;;;;;;;;5114399;28;20023;-40
2022/11/21 13:37:51;;;;;;;7.72;1.60;;;;;;;;;;5113345;28;20055;-41
2022/11/21 13:40:29;;;;;;;6.90;1.50;;;;;;;;;;5114250;28;20032;-40
2022/11/21 13:43:14;;;;;;;5.20;1.60;;;;;;;;;;5112956;28;20124;-41
2022/11/21 13:45:44;;;;;;;5.63;1.77;;;;;;;;;;5107855;28;20031;-41
2022/11/21 13:48:16;;;;;;;5.80;1.55;;;;;;;;;;5106507;28;20024;-41
2022/11/21 13:50:58;;;;;;;4.03;1.90;;;;;;;;;;5098835;28;20035;-40
2022/11/21 13:53:43;;;;;;;5.32;1.58;;;;;;;;;;5097875;28;20024;-41
2022/11/21 13:56:24;;;;;;;5.68;1.45;;;;;;;;;;5101296;28;20545;-40
2022/11/21 13:58:53;;;;;;;5.10;1.55;;;;;;;;;;5103496;28;20514;-40
2022/11/21 14:01:38;;;;;;;4.30;1.30;;;;;;;;;;5110577;28;20031;-41
2022/11/21 14:04:29;;;;;;;6.70;1.50;;;;;;;;;;5098371;28;20428;-42
2022/11/21 14:06:55;;;;;;;3.75;1.48;;;;;;;;;;5108939;28;20094;-44
2022/11/21 14:09:23;;;;;;;4.88;1.80;;;;;;;;;;5084349;28;20067;-45
2022/11/21 14:11:51;;;;;;;4.72;1.50;;;;;;;;;;5096962;28;20059;-45
2022/11/21 14:14:26;;;;;;;3.22;1.48;;;;;;;;;;5108818;28;20035;-43
2022/11/21 14:16:57;;;;;;;2.60;1.02;;;;;;;;;;5107845;28;20031;-46
2022/11/21 14:19:24;;;;;;;5.07;1.17;;;;;;;;;;5107709;28;20031;-44
2022/11/21 14:21:50;;;;;;;5.18;1.38;;;;;;;;;;5100069;28;20032;-44
2022/11/21 14:24:17;;;;;;;4.93;1.23;;;;;;;;;;5092424;28;20028;-44
2022/11/21 14:26:45;;;;;;;3.13;1.13;;;;;;;;;;5094942;28;20028;-43
2022/11/21 14:29:17;;;;;;;2.55;0.93;;;;;;;;;;5092110;28;20111;-43
2022/11/21 14:31:47;;;;;;;4.07;1.17;;;;;;;;;;5092793;28;20103;-43
2022/11/21 14:34:13;;;;;;;7.90;1.23;;;;;;;;;;5093408;28;20024;-42
2022/11/21 14:36:40;;;;;;;5.75;1.42;;;;;;;;;;5095851;28;20498;-43
2022/11/21 14:39:08;;;;;;;3.95;1.75;;;;;;;;;;5096025;28;20066;-43
2022/11/21 14:41:36;;;;;;;3.00;1.20;;;;;;;;;;5093299;28;20024;-43
2022/11/21 14:44:02;;;;;;;5.53;1.42;;;;;;;;;;5093539;28;20102;-42
2022/11/21 14:46:29;;;;;;;3.53;1.55;;;;;;;;;;5093488;28;20027;-42
2022/11/21 14:48:58;;;;;;;3.35;1.15;;;;;;;;;;5092549;28;20020;-45
2022/11/21 14:51:25;;;;;;;3.30;1.27;;;;;;;;;;5076612;28;20024;-44
2022/11/21 14:53:52;;;;;;;3.25;1.23;;;;;;;;;;5092344;28;20028;-43
2022/11/21 14:56:26;;;;;;;2.15;0.95;;;;;;;;;;5092880;28;20407;-44
2022/11/21 14:58:53;;;;;;;4.68;1.30;;;;;;;;;;5092974;28;20032;-43
2022/11/21 15:01:20;;;;;;;3.53;1.10;;;;;;;;;;5092920;28;20035;-43
2022/11/21 15:04:06;;;;;;;2.75;1.25;;;;;;;;;;5092850;28;20024;-43
2022/11/21 15:06:40;;;;;;;1.63;1.08;;;;;;;;;;5097390;28;20031;-44
2022/11/21 15:09:06;;;;;;;6.85;1.70;;;;;;;;;;5096049;28;20122;-43
2022/11/21 15:11:36;;;;;;;2.40;1.48;;;;;;;;;;5102253;28;20031;-44
2022/11/21 15:14:05;;;;;;;4.18;1.45;;;;;;;;;;5111349;28;20030;-43
2022/11/21 15:16:31;;;;;;;2.88;1.27;;;;;;;;;;5092636;28;20471;-43
2022/11/21 15:18:57;;;;;;;3.28;1.30;;;;;;;;;;5092394;28;20478;-44
2022/11/21 15:21:23;;;;;;;3.13;1.40;;;;;;;;;;5097136;28;20024;-43
2022/11/21 15:23:50;;;;;;;4.50;1.63;;;;;;;;;;5109352;28;20044;-42
2022/11/21 15:26:34;;;;;;;2.38;1.40;;;;;;;;;;5091759;28;20107;-53
2022/11/21 15:29:00;;;;;;;4.97;1.77;;;;;;;;;;5099052;28;20415;-52
2022/11/21 15:31:26;;;;;;;4.45;1.63;;;;;;;;;;5096123;28;20130;-52
2022/11/21 15:34:02;;;;;;;4.65;1.40;;;;;;;;;;5095975;28;20047;-53
2022/11/21 15:36:29;;;;;;;5.85;1.83;;;;;;;;;;5102375;28;20089;-51
2022/11/21 15:39:04;;;;;;;3.78;1.52;;;;;;;;;;5102614;28;20114;-53
2022/11/21 15:41:34;;;;;;;6.68;1.60;;;;;;;;;;5090431;28;20463;-42
2022/11/21 15:44:00;;;;;;;1.90;1.65;;;;;;;;;;5104996;28;20449;-42
2022/11/21 15:46:31;;;;;;;2.80;1.50;;;;;;;;;;5102164;28;20028;-42
2022/11/21 15:49:01;;;;;;;3.85;1.63;;;;;;;;;;5101104;27;20027;-40
2022/11/21 15:51:34;;;;;;;3.17;1.52;;;;;;;;;;5104945;28;20030;-40
2022/11/21 15:54:01;;;;;;;2.47;1.40;;;;;;;;;;5100070;28;20055;-40
2022/11/21 15:56:27;;;;;;;2.65;1.52;;;;;;;;;;5105565;28;20099;-40
2022/11/21 15:58:53;;;;;;;2.33;1.40;;;;;;;;;;5101186;28;20034;-41
2022/11/21 16:01:20;;;;;;;1.80;1.23;;;;;;;;;;5101281;28;20104;-41
2022/11/21 16:03:51;;;;;;;1.90;1.25;;;;;;;;;;5105796;27;20537;-41
2022/11/21 16:06:17;;;;;;;2.53;1.20;;;;;;;;;;5105788;28;20441;-41
2022/11/21 16:08:43;;;;;;;3.15;1.80;;;;;;;;;;5097115;28;20046;-41
2022/11/21 16:11:30;;;;;;;3.92;1.95;;;;;;;;;;5101011;28;20476;-41
2022/11/21 16:14:00;;;;;;;1.83;1.38;;;;;;;;;;5096602;28;20148;-41
2022/11/21 16:16:30;;;;;;;3.28;1.45;;;;;;;;;;5097404;27;20020;-41
2022/11/21 16:18:56;;;;;;;2.65;1.58;;;;;;;;;;5087424;28;20027;-41
2022/11/21 16:21:23;;;;;;;3.38;1.63;;;;;;;;;;5093921;28;20023;-42
2022/11/21 16:23:49;;;;;;;1.45;1.20;;;;;;;;;;5092891;28;20069;-41
2022/11/21 16:26:15;;;;;;;3.67;1.50;;;;;;;;;;5079467;28;20048;-41
2022/11/21 16:28:41;;;;;;;2.85;1.70;;;;;;;;;;5099023;28;20050;-41
2022/11/21 16:31:19;;;;;;;4.88;1.67;;;;;;;;;;5103347;28;20052;-41
2022/11/21 16:33:45;;;;;;;3.22;1.58;;;;;;;;;;5108733;28;20028;-41
2022/11/21 16:36:12;;;;;;;3.70;1.83;;;;;;;;;;5091975;28;20043;-41
2022/11/21 16:38:37;;;;;;;4.93;1.92;;;;;;;;;;5103878;28;20026;-41
2022/11/21 16:41:04;;;;;;;4.63;2.05;;;;;;;;;;5098912;28;20153;-40
2022/11/21 16:43:30;;;;;;;3.95;1.65;;;;;;;;;;5091035;28;20111;-41
2022/11/21 16:46:05;;;;;;;4.75;1.88;;;;;;;;;;5090991;28;20107;-41
2022/11/21 16:48:31;;;;;;;3.97;2.10;;;;;;;;;;5093644;28;20099;-41
2022/11/21 16:51:08;;;;;;;5.03;2.50;;;;;;;;;;5090927;28;20544;-41
2022/11/21 16:53:34;;;;;;;3.25;1.73;;;;;;;;;;5089735;28;20240;-41
2022/11/21 16:56:00;;;;;;;4.25;1.77;;;;;;;;;;5098577;28;20034;-40
2022/11/21 16:58:26;;;;;;;4.40;1.60;;;;;;;;;;5130722;28;20029;-41
2022/11/21 17:00:52;;;;;;;3.13;1.80;;;;;;;;;;5120087;28;20063;-41
2022/11/21 17:03:18;;;;;;;3.20;1.67;;;;;;;;;;5110460;28;20553;-40
2022/11/21 17:05:55;;;;;;;1.45;1.20;;;;;;;;;;5110452;28;20108;-40
2022/11/21 17:08:21;;;;;;;3.35;1.55;;;;;;;;;;5093770;28;20031;-41
2022/11/21 17:10:47;;;;;;;4.32;1.83;;;;;;;;;;5110233;28;20388;-41
2022/11/21 17:13:13;;;;;;;2.72;1.70;;;;;;;;;;5121120;27;20043;-40
2022/11/21 17:15:39;;;;;;;3.05;1.60;;;;;;;;;;5130926;27;20024;-41
2022/11/21 17:18:05;;;;;;;4.18;2.00;;;;;;;;;;5122263;28;20498;-41
2022/11/21 17:20:31;;;;;;;2.38;1.70;;;;;;;;;;5095093;28;20041;-41
2022/11/21 17:22:57;;;;;;;3.75;1.83;;;;;;;;;;5093495;28;20251;-41
2022/11/21 17:25:23;;;;;;;3.03;2.03;;;;;;;;;;5089910;28;20402;-41
2022/11/21 17:27:49;;;;;;;4.45;2.60;;;;;;;;;;5107177;28;20099;-40
2022/11/21 17:30:15;;;;;;;4.60;2.40;;;;;;;;;;5102709;28;20459;-40
2022/11/21 17:32:41;;;;;;;2.53;1.92;;;;;;;;;;5108070;28;20148;-41
2022/11/21 17:35:07;;;;;;;3.03;2.00;;;;;;;;;;5114651;28;20110;-43
2022/11/21 17:37:33;;;;;;;3.15;2.05;;;;;;;;;;5113503;28;20020;-41
2022/11/21 17:39:59;;;;;;;3.53;2.20;;;;;;;;;;5111816;28;20042;-41
2022/11/21 17:42:27;;;;;;;3.70;2.10;;;;;;;;;;5113354;28;20027;-41
2022/11/21 17:44:53;;;;;;;3.88;2.45;;;;;;;;;;5112924;28;20023;-41
2022/11/21 17:47:19;;;;;;;4.85;2.72;;;;;;;;;;5112518;28;20046;-41
2022/11/21 17:49:45;;;;;;;5.40;2.40;;;;;;;;;;5111460;28;20035;-41
2022/11/21 17:52:11;;;;;;;7.57;3.42;;;;;;;;;;5098017;28;20028;-41
2022/11/21 17:54:37;;;;;;;5.13;2.92;;;;;;;;;;5110306;28;20084;-41
2022/11/21 17:57:03;;;;;;;9.85;3.40;;;;;;;;;;5100878;28;20055;-41
2022/11/21 17:59:29;;;;;;;6.18;4.00;;;;;;;;;;5074907;28;20578;-40
2022/11/21 18:01:55;;;;;;;10.40;6.28;;;;;;;;;;5108909;28;20064;-41
2022/11/21 18:04:21;;;;;;;8.02;4.47;;;;;;;;;;5104899;28;20398;-41
2022/11/21 18:06:48;;;;;;;6.35;4.00;;;;;;;;;;5101534;28;20033;-41
2022/11/21 18:09:14;;;;;;;6.05;3.17;;;;;;;;;;5088887;28;21216;-41
2022/11/21 18:11:42;;;;;;;5.32;2.60;;;;;;;;;;5082828;28;20505;-40
2022/11/21 18:14:09;;;;;;;6.70;3.40;;;;;;;;;;5101520;28;20012;-40
2022/11/21 18:16:36;;;;;;;3.13;2.17;;;;;;;;;;5084528;28;20443;-41
2022/11/21 18:19:02;;;;;;;5.53;3.05;;;;;;;;;;5109914;28;20072;-40
2022/11/21 18:21:29;;;;;;;4.25;2.97;;;;;;;;;;5109334;28;20016;-41
2022/11/21 18:23:56;;;;;;;5.20;2.85;;;;;;;;;;5108815;28;20023;-41
2022/11/21 18:26:26;;;;;;;3.58;2.47;;;;;;;;;;5109419;28;20502;-41
2022/11/21 18:28:56;;;;;;;4.57;2.90;;;;;;;;;;5108482;28;20376;-40
2022/11/21 18:31:23;;;;;;;5.35;2.92;;;;;;;;;;5109219;28;20494;-41
2022/11/21 18:33:50;;;;;;;4.05;2.75;;;;;;;;;;5108814;28;20031;-41
2022/11/21 18:36:17;;;;;;;6.07;3.25;;;;;;;;;;5107760;27;20024;-41
2022/11/21 18:38:43;;;;;;;2.88;2.30;;;;;;;;;;5092597;28;20060;-41
2022/11/21 18:41:11;;;;;;;5.82;2.78;;;;;;;;;;5105516;28;20564;-40
2022/11/21 18:43:38;;;;;;;5.03;3.17;;;;;;;;;;5094246;28;20032;-40
2022/11/21 18:46:08;;;;;;;5.50;2.92;;;;;;;;;;5098560;28;20100;-41
2022/11/21 18:48:34;;;;;;;4.90;2.78;;;;;;;;;;5088233;28;20063;-40
2022/11/21 18:51:04;;;;;;;3.53;2.30;;;;;;;;;;5102267;28;20495;-41
2022/11/21 18:53:30;;;;;;;2.47;2.03;;;;;;;;;;5105785;28;20399;-41
2022/11/21 18:55:57;;;;;;;4.10;2.40;;;;;;;;;;5088989;28;20019;-40
2022/11/21 18:58:24;;;;;;;4.25;3.00;;;;;;;;;;5096174;28;20024;-40
2022/11/21 19:00:50;;;;;;;3.88;2.45;;;;;;;;;;5095729;28;20035;-41
2022/11/21 19:03:18;;;;;;;3.70;2.28;;;;;;;;;;5098691;28;20236;-40
2022/11/21 19:05:44;;;;;;;3.05;2.05;;;;;;;;;;5095171;28;20538;-40
2022/11/21 19:08:10;;;;;;;4.35;2.20;;;;;;;;;;5094234;28;20153;-41
2022/11/21 19:10:36;;;;;;;2.95;1.75;;;;;;;;;;5100347;28;20020;-41
2022/11/21 19:13:03;;;;;;;2.70;1.80;;;;;;;;;;5100289;28;20028;-41
2022/11/21 19:15:29;;;;;;;3.10;1.80;;;;;;;;;;5092246;28;20270;-41
2022/11/21 19:17:55;;;;;;;2.75;1.60;;;;;;;;;;5095313;28;20058;-41
2022/11/21 19:20:21;;;;;;;4.05;2.20;;;;;;;;;;5086512;28;20057;-41
2022/11/21 19:22:47;;;;;;;1.90;1.40;;;;;;;;;;5096328;28;20538;-41
2022/11/21 19:25:13;;;;;;;3.30;1.67;;;;;;;;;;5094675;28;20017;-41
2022/11/21 19:27:39;;;;;;;2.45;1.70;;;;;;;;;;5088288;28;20140;-41
2022/11/21 19:30:05;;;;;;;4.32;1.80;;;;;;;;;;5100190;28;20019;-41
2022/11/21 19:32:33;;;;;;;4.00;2.25;;;;;;;;;;5100762;28;20103;-41
2022/11/21 19:34:59;;;;;;;4.88;2.10;;;;;;;;;;5104741;28;20024;-41
2022/11/21 19:37:25;;;;;;;3.45;1.80;;;;;;;;;;5086243;28;21636;-41
2022/11/21 19:39:51;;;;;;;5.60;2.40;;;;;;;;;;5089563;28;20028;-41
2022/11/21 19:42:17;;;;;;;4.53;2.50;;;;;;;;;;5103684;28;20032;-41
2022/11/21 19:44:43;;;;;;;5.85;2.65;;;;;;;;;;5103316;28;20111;-41
2022/11/21 19:47:10;;;;;;;4.82;2.42;;;;;;;;;;5103893;28;20128;-41
2022/11/21 19:49:36;;;;;;;4.82;2.42;;;;;;;;;;5109161;28;20023;-41
2022/11/21 19:52:02;;;;;;;3.50;2.20;;;;;;;;;;5106103;28;20369;-41
2022/11/21 19:54:28;;;;;;;3.42;2.00;;;;;;;;;;5098244;28;20020;-41
2022/11/21 19:56:54;;;;;;;3.42;2.50;;;;;;;;;;5099440;28;20435;-41
2022/11/21 19:59:20;;;;;;;4.05;2.70;;;;;;;;;;5084704;28;20024;-41
2022/11/21 20:01:46;;;;;;;3.25;2.25;;;;;;;;;;5102069;28;20019;-41
2022/11/21 20:04:13;;;;;;;4.65;2.38;;;;;;;;;;5091582;28;20070;-41
2022/11/21 20:06:41;;;;;;;4.32;2.92;;;;;;;;;;5105619;28;20095;-41
2022/11/21 20:09:08;;;;;;;4.43;2.92;;;;;;;;;;5103586;28;20024;-41
2022/11/21 20:11:34;;;;;;;4.85;2.90;;;;;;;;;;5101698;27;20441;-41
2022/11/21 20:14:00;;;;;;;3.40;2.10;;;;;;;;;;5097302;28;20039;-41
2022/11/21 20:16:29;;;;;;;2.97;2.30;;;;;;;;;;5089769;28;20021;-41
2022/11/21 20:18:57;;;;;;;2.60;1.83;;;;;;;;;;5088709;28;20020;-41
2022/11/21 20:21:24;;;;;;;3.08;1.80;;;;;;;;;;5093010;28;20107;-41
2022/11/21 20:23:50;;;;;;;3.08;2.00;;;;;;;;;;5090412;28;20047;-41
2022/11/21 20:26:17;;;;;;;5.10;2.05;;;;;;;;;;5088714;28;20040;-41
2022/11/21 20:28:43;;;;;;;3.80;2.13;;;;;;;;;;5097290;28;20115;-41